createdAt,value
2023-06-28T00:00:32.056Z,63.60
2023-06-28T00:01:38.243Z,63.80
2023-06-28T00:02:42.113Z,63.90
2023-06-28T00:03:44.450Z,64.10
2023-06-28T00:04:47.543Z,64.40
2023-06-28T00:05:50.289Z,64.60
2023-06-28T00:06:53.501Z,64.60
2023-06-28T00:07:55.532Z,64.80
2023-06-28T00:08:58.883Z,64.90
2023-06-28T00:10:02.764Z,65.30
2023-06-28T00:11:07.355Z,65.50
2023-06-28T00:12:09.501Z,65.70
2023-06-28T00:13:12.675Z,66.00
2023-06-28T00:14:14.642Z,66.40
2023-06-28T00:15:17.545Z,66.30
2023-06-28T00:16:19.588Z,66.80
2023-06-28T00:17:28.834Z,67.10
2023-06-28T00:18:31.513Z,67.50
2023-06-28T00:19:34.543Z,67.50
2023-06-28T00:20:36.527Z,67.90
2023-06-28T00:21:39.798Z,68.20
2023-06-28T00:22:42.116Z,68.10
2023-06-28T00:23:45.023Z,68.40
2023-06-28T00:24:47.412Z,68.50
2023-06-28T00:25:51.900Z,68.10
2023-06-28T00:26:53.820Z,68.20
2023-06-28T00:27:56.844Z,68.40
2023-06-28T00:28:58.980Z,68.40
2023-06-28T00:30:02.169Z,68.70
2023-06-28T00:31:07.104Z,68.90
2023-06-28T00:32:10.191Z,68.90
2023-06-28T00:33:12.599Z,69.20
2023-06-28T00:34:15.819Z,69.30
2023-06-28T00:35:17.741Z,69.50
2023-06-28T00:36:22.120Z,70.00
2023-06-28T00:37:24.119Z,70.30
2023-06-28T00:38:27.059Z,70.70
2023-06-28T00:39:29.155Z,71.10
2023-06-28T00:40:32.517Z,71.50
2023-06-28T00:41:35.857Z,71.70
2023-06-28T00:42:38.825Z,72.10
2023-06-28T00:43:41.081Z,72.20
2023-06-28T00:44:43.960Z,72.60
2023-06-28T00:45:45.875Z,72.90
2023-06-28T00:46:50.273Z,73.00
2023-06-28T00:47:52.470Z,73.50
2023-06-28T00:48:55.489Z,74.00
2023-06-28T00:49:57.970Z,74.20
2023-06-28T00:51:01.740Z,74.30
2023-06-28T00:52:03.982Z,74.60
2023-06-28T00:53:08.724Z,74.60
2023-06-28T00:54:11.154Z,74.80
2023-06-28T00:55:14.530Z,75.00
2023-06-28T00:56:16.786Z,74.70
2023-06-28T00:57:21.566Z,74.70
2023-06-28T00:58:26.923Z,75.10
2023-06-28T00:59:30.488Z,75.00
2023-06-28T01:00:32.450Z,75.00
2023-06-28T01:01:35.743Z,75.20
2023-06-28T01:02:42.559Z,75.40
2023-06-28T01:03:47.132Z,75.60
2023-06-28T01:04:51.051Z,75.50
2023-06-28T01:05:54.516Z,75.90
2023-06-28T01:07:00.913Z,75.80
2023-06-28T01:08:05.465Z,76.10
2023-06-28T01:09:09.141Z,76.40
2023-06-28T01:10:12.534Z,76.60
2023-06-28T01:11:16.285Z,77.40
2023-06-28T01:12:19.270Z,77.00
2023-06-28T01:13:23.659Z,77.30
2023-06-28T01:14:27.156Z,77.20
2023-06-28T01:15:30.075Z,77.70
2023-06-28T01:16:34.445Z,78.00
2023-06-28T01:17:37.460Z,78.10
2023-06-28T01:18:40.421Z,78.50
2023-06-28T01:19:43.847Z,78.70
2023-06-28T01:20:45.956Z,78.90
2023-06-28T01:21:51.011Z,79.20
2023-06-28T01:22:55.993Z,79.20
2023-06-28T01:24:01.182Z,79.10
2023-06-28T01:25:03.453Z,79.20
2023-06-28T01:26:06.692Z,79.10
2023-06-28T01:27:11.117Z,79.30
2023-06-28T01:28:15.143Z,79.20
2023-06-28T01:29:17.487Z,79.00
2023-06-28T01:30:24.732Z,79.40
2023-06-28T01:31:27.834Z,78.90
2023-06-28T01:32:31.720Z,78.70
2023-06-28T01:33:35.445Z,78.70
2023-06-28T01:34:38.563Z,78.80
2023-06-28T01:35:40.722Z,78.40
2023-06-28T01:36:43.713Z,78.50
2023-06-28T01:37:45.843Z,78.70
2023-06-28T01:38:50.924Z,78.50
2023-06-28T01:39:54.070Z,78.60
2023-06-28T01:40:58.009Z,78.40
2023-06-28T01:42:00.636Z,78.30
2023-06-28T01:43:04.058Z,78.00
2023-06-28T01:44:06.006Z,78.00
2023-06-28T01:45:09.862Z,78.00
2023-06-28T01:46:12.059Z,78.00
2023-06-28T01:47:15.014Z,78.20
2023-06-28T01:48:17.786Z,78.10
2023-06-28T01:49:23.820Z,77.80
2023-06-28T01:50:27.478Z,77.60
2023-06-28T01:51:29.676Z,77.40
2023-06-28T01:52:32.617Z,77.60
2023-06-28T01:53:36.316Z,77.40
2023-06-28T01:54:41.217Z,77.50
2023-06-28T01:55:43.496Z,77.40
2023-06-28T01:56:48.285Z,77.60
2023-06-28T01:57:50.789Z,77.80
2023-06-28T01:58:53.805Z,78.10
2023-06-28T01:59:56.403Z,78.20
2023-06-28T02:00:59.727Z,78.10
2023-06-28T02:02:01.734Z,78.30
2023-06-28T02:03:05.569Z,78.40
2023-06-28T02:04:07.721Z,78.60
2023-06-28T02:05:10.720Z,78.60
2023-06-28T02:06:13.108Z,78.90
2023-06-28T02:07:16.416Z,79.00
2023-06-28T02:08:22.250Z,79.00
2023-06-28T02:09:25.181Z,79.40
2023-06-28T02:10:29.791Z,79.40
2023-06-28T02:11:31.805Z,79.40
2023-06-28T02:12:34.690Z,79.60
2023-06-28T02:13:36.593Z,79.80
2023-06-28T02:14:40.639Z,79.90
2023-06-28T02:15:43.035Z,80.10
2023-06-28T02:16:45.982Z,80.20
2023-06-28T02:17:50.123Z,80.60
2023-06-28T02:18:53.220Z,80.60
2023-06-28T02:19:55.663Z,81.00
2023-06-28T02:20:58.561Z,81.30
2023-06-28T02:22:01.685Z,81.50
2023-06-28T02:23:05.137Z,81.50
2023-06-28T02:24:07.145Z,81.50
2023-06-28T02:25:10.467Z,81.40
2023-06-28T02:26:13.957Z,81.50
2023-06-28T02:27:17.078Z,81.60
2023-06-28T02:28:20.815Z,81.60
2023-06-28T02:29:24.135Z,81.70
2023-06-28T02:30:27.525Z,81.30
2023-06-28T02:31:29.669Z,81.30
2023-06-28T02:32:32.747Z,81.40
2023-06-28T02:33:35.124Z,81.10
2023-06-28T02:34:39.101Z,81.00
2023-06-28T02:35:42.926Z,80.80
2023-06-28T02:36:47.753Z,80.90
2023-06-28T02:37:49.750Z,80.80
2023-06-28T02:38:53.113Z,80.60
2023-06-28T02:39:55.895Z,80.40
2023-06-28T02:40:59.421Z,80.10
2023-06-28T02:42:02.690Z,80.00
2023-06-28T02:43:05.637Z,80.00
2023-06-28T02:44:07.561Z,79.70
2023-06-28T02:45:11.046Z,79.40
2023-06-28T02:46:13.075Z,79.40
2023-06-28T02:47:16.199Z,79.20
2023-06-28T02:48:18.592Z,79.40
2023-06-28T02:49:22.003Z,79.40
2023-06-28T02:50:25.432Z,79.50
2023-06-28T02:51:36.434Z,79.60
2023-06-28T02:52:40.983Z,79.80
2023-06-28T02:53:46.230Z,80.00
2023-06-28T02:54:48.219Z,80.40
2023-06-28T02:55:51.422Z,80.20
2023-06-28T02:56:59.040Z,80.50
2023-06-28T02:58:18.062Z,80.00
2023-06-28T02:59:20.347Z,79.80
2023-06-28T03:00:25.852Z,79.80
2023-06-28T03:01:27.931Z,79.00
2023-06-28T03:02:31.052Z,79.10
2023-06-28T03:03:34.618Z,78.90
2023-06-28T03:04:40.909Z,78.50
2023-06-28T03:05:44.350Z,78.30
2023-06-28T03:06:49.564Z,77.60
2023-06-28T03:07:51.846Z,77.20
2023-06-28T03:08:55.110Z,76.60
2023-06-28T03:09:57.357Z,76.30
2023-06-28T03:11:00.685Z,76.10
2023-06-28T03:12:02.640Z,76.20
2023-06-28T03:13:06.290Z,76.10
2023-06-28T03:14:09.716Z,75.80
2023-06-28T03:15:14.536Z,75.60
2023-06-28T03:16:17.034Z,75.50
2023-06-28T03:17:20.837Z,75.40
2023-06-28T03:18:23.124Z,75.50
2023-06-28T03:19:26.483Z,75.40
2023-06-28T03:20:28.946Z,75.50
2023-06-28T03:21:32.996Z,75.50
2023-06-28T03:22:37.397Z,75.70
2023-06-28T03:23:41.317Z,75.70
2023-06-28T03:24:45.050Z,76.00
2023-06-28T03:25:47.919Z,76.00
2023-06-28T03:26:51.854Z,76.00
2023-06-28T03:27:54.847Z,76.20
2023-06-28T03:28:58.828Z,76.50
2023-06-28T03:30:05.362Z,76.30
2023-06-28T03:31:09.179Z,76.50
2023-06-28T03:32:12.116Z,76.70
2023-06-28T03:33:14.057Z,76.80
2023-06-28T03:34:17.880Z,76.90
2023-06-28T03:35:20.584Z,77.00
2023-06-28T03:36:24.993Z,77.00
2023-06-28T03:37:26.945Z,77.20
2023-06-28T03:38:29.932Z,77.20
2023-06-28T03:39:31.891Z,76.80
2023-06-28T03:40:34.786Z,76.80
2023-06-28T03:41:37.286Z,76.70
2023-06-28T03:42:40.638Z,77.00
2023-06-28T03:43:42.639Z,76.50
2023-06-28T03:44:45.500Z,76.90
2023-06-28T03:45:51.009Z,76.90
2023-06-28T03:46:54.308Z,77.60
2023-06-28T03:47:56.683Z,77.60
2023-06-28T03:48:59.687Z,77.30
2023-06-28T03:50:01.710Z,77.30
2023-06-28T03:51:05.304Z,77.40
2023-06-28T03:52:07.916Z,77.60
2023-06-28T03:53:10.767Z,77.60
2023-06-28T03:54:12.931Z,77.50
2023-06-28T03:55:17.490Z,77.70
2023-06-28T03:56:19.535Z,77.60
2023-06-28T03:57:23.218Z,77.70
2023-06-28T03:58:25.334Z,77.60
2023-06-28T03:59:28.346Z,77.20
2023-06-28T04:00:30.666Z,77.00
2023-06-28T04:01:35.198Z,77.20
2023-06-28T04:02:37.328Z,77.10
2023-06-28T04:03:40.490Z,77.00
2023-06-28T04:04:42.498Z,76.90
2023-06-28T04:05:45.399Z,76.80
2023-06-28T04:06:47.419Z,76.60
2023-06-28T04:07:55.581Z,76.40
2023-06-28T04:08:57.698Z,76.20
2023-06-28T04:10:01.031Z,76.10
2023-06-28T04:11:03.045Z,76.00
2023-06-28T04:12:06.518Z,76.20
2023-06-28T04:13:08.509Z,75.80
2023-06-28T04:14:11.422Z,76.00
2023-06-28T04:15:13.567Z,76.00
2023-06-28T04:16:16.617Z,75.90
2023-06-28T04:17:19.989Z,75.70
2023-06-28T04:18:22.956Z,75.50
2023-06-28T04:19:24.896Z,75.30
2023-06-28T04:20:28.202Z,75.00
2023-06-28T04:21:31.119Z,74.70
2023-06-28T04:22:34.096Z,74.90
2023-06-28T04:23:36.067Z,74.50
2023-06-28T04:24:39.245Z,74.40
2023-06-28T04:25:41.188Z,74.40
2023-06-28T04:26:44.103Z,74.20
2023-06-28T04:27:47.005Z,74.20
2023-06-28T04:28:49.923Z,74.30
2023-06-28T04:29:51.911Z,73.70
2023-06-28T04:30:54.822Z,73.70
2023-06-28T04:32:00.115Z,73.80
2023-06-28T04:33:06.131Z,73.50
2023-06-28T04:34:08.609Z,73.50
2023-06-28T04:35:11.705Z,72.90
2023-06-28T04:36:13.847Z,72.80
2023-06-28T04:37:16.739Z,72.40
2023-06-28T04:38:19.478Z,72.30
2023-06-28T04:39:22.565Z,72.00
2023-06-28T04:40:24.470Z,72.00
2023-06-28T04:41:27.703Z,72.00
2023-06-28T04:42:30.048Z,71.70
2023-06-28T04:43:41.773Z,71.70
2023-06-28T04:44:44.555Z,71.80
2023-06-28T04:45:47.494Z,71.80
2023-06-28T04:46:49.888Z,71.90
2023-06-28T04:47:54.034Z,71.90
2023-06-28T04:48:57.977Z,71.70
2023-06-28T04:50:01.012Z,71.80
2023-06-28T04:51:03.091Z,71.50
2023-06-28T04:52:06.149Z,70.90
2023-06-28T04:53:09.147Z,71.00
2023-06-28T04:54:11.263Z,71.10
2023-06-28T04:55:14.240Z,71.00
2023-06-28T04:56:16.301Z,70.80
2023-06-28T04:57:21.603Z,70.70
2023-06-28T04:58:24.078Z,70.40
2023-06-28T04:59:27.144Z,70.40
2023-06-28T05:00:29.945Z,70.60
2023-06-28T05:01:35.789Z,70.80
2023-06-28T05:02:37.934Z,70.50
2023-06-28T05:03:40.979Z,70.50
2023-06-28T05:04:44.549Z,70.40
2023-06-28T05:05:47.481Z,70.40
2023-06-28T05:06:52.581Z,70.70
2023-06-28T05:07:55.861Z,70.60
2023-06-28T05:08:58.072Z,70.70
2023-06-28T05:10:01.490Z,70.50
2023-06-28T05:11:03.789Z,71.00
2023-06-28T05:12:07.231Z,70.70
2023-06-28T05:13:09.146Z,70.50
2023-06-28T05:14:12.028Z,70.60
2023-06-28T05:15:14.999Z,70.30
2023-06-28T05:16:17.875Z,70.10
2023-06-28T05:17:20.166Z,70.20
2023-06-28T05:18:23.421Z,70.20
2023-06-28T05:19:25.777Z,69.90
2023-06-28T05:20:30.750Z,69.90
2023-06-28T05:21:32.762Z,70.00
2023-06-28T05:22:35.869Z,70.00
2023-06-28T05:23:37.991Z,69.60
2023-06-28T05:24:40.975Z,69.40
2023-06-28T05:25:43.241Z,68.80
2023-06-28T05:26:46.204Z,69.10
2023-06-28T05:27:48.147Z,68.90
2023-06-28T05:28:51.096Z,68.80
2023-06-28T05:29:53.506Z,68.50
2023-06-28T05:30:56.453Z,68.40
2023-06-28T05:31:58.382Z,67.90
2023-06-28T05:33:03.976Z,67.50
2023-06-28T05:34:06.973Z,67.30
2023-06-28T05:35:09.268Z,67.20
2023-06-28T05:36:13.807Z,66.70
2023-06-28T05:37:16.143Z,66.60
2023-06-28T05:38:19.807Z,66.40
2023-06-28T05:39:21.725Z,65.80
2023-06-28T05:40:25.000Z,65.90
2023-06-28T05:41:26.956Z,65.60
2023-06-28T05:42:29.935Z,65.20
2023-06-28T05:43:32.093Z,65.10
2023-06-28T05:44:35.217Z,65.00
2023-06-28T05:45:37.321Z,64.90
2023-06-28T05:46:40.199Z,64.50
2023-06-28T05:47:42.359Z,64.00
2023-06-28T05:48:47.105Z,63.50
2023-06-28T05:49:50.534Z,63.10
2023-06-28T05:50:53.560Z,62.80
2023-06-28T05:51:56.986Z,62.30
2023-06-28T05:53:00.011Z,62.30
2023-06-28T05:54:02.159Z,62.10
2023-06-28T05:55:05.273Z,62.20
2023-06-28T05:56:08.300Z,62.60
2023-06-28T05:57:11.598Z,61.50
2023-06-28T05:58:14.912Z,61.00
2023-06-28T05:59:16.987Z,60.80
2023-06-28T06:00:21.545Z,60.50
2023-06-28T06:01:23.907Z,60.10
2023-06-28T06:02:28.756Z,60.20
2023-06-28T06:03:31.841Z,60.10
2023-06-28T06:04:35.168Z,60.10
2023-06-28T06:05:38.063Z,59.90
2023-06-28T06:06:41.026Z,59.70
2023-06-28T06:07:44.526Z,59.60
2023-06-28T06:08:47.558Z,59.40
2023-06-28T06:09:49.506Z,59.30
2023-06-28T06:10:52.385Z,59.20
2023-06-28T06:11:54.355Z,59.00
2023-06-28T06:12:57.401Z,58.80
2023-06-28T06:13:59.320Z,58.60
2023-06-28T06:15:02.362Z,58.60
2023-06-28T06:16:05.686Z,58.70
2023-06-28T06:17:07.735Z,58.10
2023-06-28T06:18:11.155Z,58.30
2023-06-28T06:19:15.072Z,58.10
2023-06-28T06:20:18.399Z,58.00
2023-06-28T06:21:20.792Z,57.70
2023-06-28T06:22:23.995Z,57.80
2023-06-28T06:23:28.222Z,57.60
2023-06-28T06:24:30.320Z,57.60
2023-06-28T06:25:33.312Z,57.60
2023-06-28T06:26:35.390Z,57.20
2023-06-28T06:27:38.530Z,57.00
2023-06-28T06:28:40.752Z,57.10
2023-06-28T06:29:43.769Z,56.80
2023-06-28T06:30:46.030Z,56.60
2023-06-28T06:31:49.678Z,56.70
2023-06-28T06:32:52.534Z,56.20
2023-06-28T06:33:57.759Z,56.30
2023-06-28T06:35:01.941Z,56.30
2023-06-28T06:36:05.031Z,56.20
2023-06-28T06:37:13.008Z,56.10
2023-06-28T06:38:16.473Z,56.10
2023-06-28T06:39:20.981Z,56.30
2023-06-28T06:40:23.013Z,56.20
2023-06-28T06:41:26.046Z,56.20
2023-06-28T06:42:28.644Z,56.30
2023-06-28T06:43:32.312Z,56.40
2023-06-28T06:44:34.514Z,56.40
2023-06-28T06:45:37.510Z,56.20
2023-06-28T06:46:39.673Z,56.30
2023-06-28T06:47:43.071Z,56.30
2023-06-28T06:48:45.083Z,56.00
2023-06-28T06:49:48.368Z,55.60
2023-06-28T06:50:51.638Z,55.50
2023-06-28T06:51:54.247Z,55.30
2023-06-28T06:52:57.445Z,55.10
2023-06-28T06:53:59.376Z,55.00
2023-06-28T06:55:03.666Z,55.00
2023-06-28T06:56:06.079Z,55.00
2023-06-28T06:57:08.979Z,54.60
2023-06-28T06:58:12.252Z,53.90
2023-06-28T06:59:14.343Z,54.00
2023-06-28T07:00:18.357Z,54.10
2023-06-28T07:01:20.411Z,54.20
2023-06-28T07:02:23.748Z,53.70
2023-06-28T07:03:25.735Z,53.80
2023-06-28T07:04:29.663Z,54.00
2023-06-28T07:05:32.572Z,54.00
2023-06-28T07:06:35.657Z,54.40
2023-06-28T07:07:37.800Z,54.30
2023-06-28T07:08:40.710Z,54.60
2023-06-28T07:09:42.695Z,54.60
2023-06-28T07:10:46.932Z,54.60
2023-06-28T07:11:48.885Z,54.30
2023-06-28T07:12:52.315Z,54.40
2023-06-28T07:13:54.221Z,54.10
2023-06-28T07:14:57.058Z,54.10
2023-06-28T07:15:59.030Z,53.40
2023-06-28T07:17:02.067Z,53.00
2023-06-28T07:18:04.844Z,53.10
2023-06-28T07:19:08.405Z,52.70
2023-06-28T07:20:10.681Z,52.10
2023-06-28T07:21:15.344Z,52.00
2023-06-28T07:22:17.298Z,51.90
2023-06-28T07:23:20.655Z,51.20
2023-06-28T07:24:22.938Z,50.90
2023-06-28T07:25:26.058Z,50.20
2023-06-28T07:26:30.449Z,49.90
2023-06-28T07:27:33.311Z,49.60
2023-06-28T07:28:35.223Z,49.10
2023-06-28T07:29:38.519Z,49.00
2023-06-28T07:30:55.132Z,48.60
2023-06-28T07:31:57.428Z,48.50
2023-06-28T07:33:00.621Z,48.20
2023-06-28T07:34:06.011Z,48.00
2023-06-28T07:35:08.430Z,47.80
2023-06-28T07:36:11.363Z,47.30
2023-06-28T07:37:13.303Z,46.70
2023-06-28T07:38:17.123Z,46.60
2023-06-28T07:39:20.039Z,46.40
2023-06-28T07:40:21.944Z,45.90
2023-06-28T07:41:25.180Z,45.90
2023-06-28T07:42:28.620Z,45.60
2023-06-28T07:43:31.802Z,45.20
2023-06-28T07:44:34.237Z,45.00
2023-06-28T07:45:37.188Z,44.70
2023-06-28T07:46:39.136Z,44.40
2023-06-28T07:47:42.808Z,44.10
2023-06-28T07:48:45.894Z,43.90
2023-06-28T07:49:47.823Z,43.40
2023-06-28T07:50:50.860Z,43.40
2023-06-28T07:51:52.808Z,43.00
2023-06-28T07:52:55.942Z,42.90
2023-06-28T07:53:58.097Z,42.20
2023-06-28T07:55:03.390Z,42.30
2023-06-28T07:56:06.381Z,42.30
2023-06-28T07:57:10.366Z,41.90
2023-06-28T07:58:15.264Z,41.70
2023-06-28T07:59:19.133Z,41.40
2023-06-28T08:00:22.400Z,41.40
2023-06-28T08:01:25.494Z,41.00
2023-06-28T08:02:27.624Z,40.60
2023-06-28T08:03:30.534Z,40.20
2023-06-28T08:04:33.561Z,39.90
2023-06-28T08:05:35.479Z,39.70
2023-06-28T08:06:38.366Z,39.50
2023-06-28T08:07:41.283Z,39.40
2023-06-28T08:08:44.152Z,39.00
2023-06-28T08:09:46.338Z,38.80
2023-06-28T08:10:49.470Z,37.80
2023-06-28T08:11:51.632Z,37.50
2023-06-28T08:12:54.710Z,37.10
2023-06-28T08:13:59.184Z,36.80
2023-06-28T08:15:01.428Z,36.30
2023-06-28T08:16:04.977Z,36.20
2023-06-28T08:17:07.992Z,36.30
2023-06-28T08:18:11.251Z,36.10
2023-06-28T08:19:14.387Z,35.70
2023-06-28T08:20:17.395Z,35.40
2023-06-28T08:21:19.574Z,35.30
2023-06-28T08:22:22.727Z,35.20
2023-06-28T08:23:24.945Z,34.90
2023-06-28T08:24:27.848Z,34.90
2023-06-28T08:25:29.863Z,34.50
2023-06-28T08:26:32.784Z,34.80
2023-06-28T08:27:34.709Z,34.60
2023-06-28T08:28:50.322Z,34.80
2023-06-28T08:30:03.689Z,34.70
2023-06-28T08:31:05.683Z,34.70
2023-06-28T08:32:10.457Z,34.50
2023-06-28T08:33:13.517Z,34.30
2023-06-28T08:34:16.831Z,34.00
2023-06-28T08:35:19.952Z,33.30
2023-06-28T08:36:22.258Z,33.10
2023-06-28T08:37:25.131Z,32.80
2023-06-28T08:38:27.403Z,32.60
2023-06-28T08:39:30.481Z,32.20
2023-06-28T08:40:33.381Z,31.70
2023-06-28T08:41:35.586Z,31.20
2023-06-28T08:42:40.856Z,31.10
2023-06-28T08:43:44.095Z,31.00
2023-06-28T08:44:47.784Z,30.90
2023-06-28T08:45:52.183Z,30.70
2023-06-28T08:46:54.747Z,30.30
2023-06-28T08:47:58.655Z,30.40
2023-06-28T08:49:01.509Z,30.20
2023-06-28T08:50:04.802Z,29.90
2023-06-28T08:51:06.980Z,29.50
2023-06-28T08:52:10.895Z,29.10
2023-06-28T08:53:14.387Z,29.10
2023-06-28T08:54:17.263Z,29.30
2023-06-28T08:55:20.170Z,29.10
2023-06-28T08:56:23.450Z,29.20
2023-06-28T08:57:25.670Z,29.40
2023-06-28T08:58:28.965Z,29.70
2023-06-28T08:59:31.315Z,30.00
2023-06-28T09:00:34.203Z,29.80
2023-06-28T09:01:39.270Z,29.70
2023-06-28T09:02:42.868Z,29.70
2023-06-28T09:03:44.974Z,30.00
2023-06-28T09:04:49.399Z,29.80
2023-06-28T09:05:53.679Z,30.00
2023-06-28T09:06:56.770Z,30.50
2023-06-28T09:08:00.518Z,30.70
2023-06-28T09:09:04.159Z,30.90
2023-06-28T09:10:08.619Z,30.70
2023-06-28T09:11:12.702Z,31.00
2023-06-28T09:12:16.375Z,30.80
2023-06-28T09:13:20.912Z,30.80
2023-06-28T09:14:23.650Z,31.20
2023-06-28T09:15:26.558Z,31.50
2023-06-28T09:16:28.769Z,32.30
2023-06-28T09:17:33.407Z,32.60
2023-06-28T09:18:35.390Z,32.70
2023-06-28T09:19:38.690Z,32.30
2023-06-28T09:20:49.508Z,32.30
2023-06-28T09:21:52.026Z,32.10
2023-06-28T09:22:58.243Z,32.60
2023-06-28T09:24:01.582Z,33.20
2023-06-28T09:25:05.589Z,33.40
2023-06-28T09:26:10.656Z,34.40
2023-06-28T09:27:13.827Z,34.40
2023-06-28T09:28:16.232Z,34.40
2023-06-28T09:29:31.690Z,34.60
2023-06-28T09:30:34.620Z,34.80
2023-06-28T09:31:40.203Z,34.60
2023-06-28T09:32:46.573Z,34.10
2023-06-28T09:33:57.830Z,34.00
2023-06-28T09:35:01.277Z,33.70
2023-06-28T09:36:04.605Z,34.00
2023-06-28T09:37:07.208Z,33.70
2023-06-28T09:38:10.752Z,33.50
2023-06-28T09:39:14.126Z,33.40
2023-06-28T09:40:18.203Z,32.90
2023-06-28T09:41:22.159Z,32.80
2023-06-28T09:42:25.227Z,32.80
2023-06-28T09:43:32.439Z,33.20
2023-06-28T09:44:35.382Z,33.00
2023-06-28T09:45:37.957Z,33.30
2023-06-28T09:46:44.938Z,33.10
2023-06-28T09:47:54.287Z,32.50
2023-06-28T09:48:57.679Z,33.00
2023-06-28T09:50:01.579Z,32.80
2023-06-28T09:51:06.427Z,32.60
2023-06-28T09:52:09.472Z,32.30
2023-06-28T09:53:13.959Z,32.30
2023-06-28T09:54:16.395Z,32.00
2023-06-28T09:55:19.814Z,31.60
2023-06-28T09:56:23.868Z,31.40
2023-06-28T09:57:27.528Z,31.60
2023-06-28T09:58:31.903Z,31.60
2023-06-28T09:59:36.986Z,31.70
2023-06-28T10:00:40.232Z,32.00
2023-06-28T10:01:43.841Z,32.00
2023-06-28T10:02:47.455Z,31.80
2023-06-28T10:03:52.682Z,32.00
2023-06-28T10:04:56.622Z,32.20
2023-06-28T10:05:59.449Z,32.00
2023-06-28T10:07:03.340Z,31.80
2023-06-28T10:08:07.812Z,31.60
2023-06-28T10:09:12.256Z,31.00
2023-06-28T10:10:15.665Z,30.60
2023-06-28T10:11:18.764Z,30.00
2023-06-28T10:12:23.563Z,30.10
2023-06-28T10:13:27.906Z,30.10
2023-06-28T10:14:32.187Z,30.00
2023-06-28T10:15:36.644Z,30.00
2023-06-28T10:16:41.335Z,29.40
2023-06-28T10:17:43.991Z,29.50
2023-06-28T10:18:46.933Z,29.60
2023-06-28T10:19:51.816Z,29.60
2023-06-28T10:20:55.946Z,29.40
2023-06-28T10:22:00.702Z,29.40
2023-06-28T10:23:02.818Z,29.20
2023-06-28T10:24:06.891Z,29.20
2023-06-28T10:25:09.620Z,29.00
2023-06-28T10:26:14.364Z,29.10
2023-06-28T10:27:16.737Z,29.30
2023-06-28T10:28:20.173Z,29.80
2023-06-28T10:29:22.192Z,29.90
2023-06-28T10:30:25.464Z,30.00
2023-06-28T10:31:28.777Z,29.80
2023-06-28T10:32:32.111Z,29.50
2023-06-28T10:33:37.637Z,29.40
2023-06-28T10:35:00.943Z,28.90
2023-06-28T10:36:22.826Z,29.20
2023-06-28T10:37:25.984Z,28.00
2023-06-28T10:38:43.281Z,28.00
2023-06-28T10:39:45.733Z,27.80
2023-06-28T10:40:49.066Z,27.70
2023-06-28T10:41:55.251Z,27.50
2023-06-28T10:42:58.238Z,27.20
2023-06-28T10:44:05.639Z,26.80
2023-06-28T10:45:09.436Z,26.80
2023-06-28T10:46:30.465Z,26.60
2023-06-28T10:47:36.406Z,26.50
2023-06-28T10:48:46.748Z,25.90
2023-06-28T10:50:15.581Z,26.10
2023-06-28T10:51:20.369Z,26.30
2023-06-28T10:52:23.305Z,25.90
2023-06-28T10:53:27.151Z,25.80
2023-06-28T10:54:29.712Z,25.60
2023-06-28T10:55:33.822Z,26.30
2023-06-28T10:56:36.374Z,26.10
2023-06-28T10:57:39.947Z,25.60
2023-06-28T10:58:43.744Z,26.10
2023-06-28T10:59:48.095Z,26.10
2023-06-28T11:00:51.483Z,26.10
2023-06-28T11:01:55.221Z,26.00
2023-06-28T11:03:01.145Z,26.10
2023-06-28T11:04:14.625Z,25.80
2023-06-28T11:05:36.629Z,25.60
2023-06-28T11:06:40.342Z,25.50
2023-06-28T11:07:52.610Z,25.00
2023-06-28T11:08:56.109Z,24.50
2023-06-28T11:10:11.710Z,24.70
2023-06-28T11:11:23.782Z,24.60
2023-06-28T11:12:25.708Z,24.00
2023-06-28T11:13:45.698Z,23.70
2023-06-28T11:14:48.720Z,23.80
2023-06-28T11:15:50.819Z,23.90
2023-06-28T11:16:54.989Z,23.80
2023-06-28T11:18:07.381Z,23.60
2023-06-28T11:19:15.302Z,24.10
2023-06-28T11:20:18.394Z,24.00
2023-06-28T11:21:25.106Z,24.40
2023-06-28T11:22:45.553Z,24.00
2023-06-28T11:23:48.881Z,23.90
2023-06-28T11:24:54.442Z,24.50
2023-06-28T11:25:58.220Z,23.80
2023-06-28T11:27:01.171Z,23.90
2023-06-28T11:28:04.432Z,24.40
2023-06-28T11:29:17.816Z,23.90
2023-06-28T11:30:19.777Z,24.10
2023-06-28T11:31:24.057Z,24.00
2023-06-28T11:32:27.289Z,24.10
2023-06-28T11:33:33.025Z,24.10
2023-06-28T11:34:36.179Z,23.60
2023-06-28T11:35:38.496Z,23.50
2023-06-28T11:36:43.464Z,23.20
2023-06-28T11:37:46.386Z,23.50
2023-06-28T11:38:48.348Z,23.40
2023-06-28T11:39:51.802Z,23.90
2023-06-28T11:40:53.935Z,23.70
2023-06-28T11:41:57.183Z,23.40
2023-06-28T11:42:59.317Z,23.80
2023-06-28T11:44:04.148Z,23.30
2023-06-28T11:45:07.979Z,23.30
2023-06-28T11:46:11.206Z,23.30
2023-06-28T11:47:13.255Z,23.50
2023-06-28T11:48:16.438Z,23.50
2023-06-28T11:49:21.114Z,23.70
2023-06-28T11:50:24.094Z,23.50
2023-06-28T11:51:27.443Z,23.40
2023-06-28T11:52:31.726Z,23.60
2023-06-28T11:53:34.802Z,23.80
2023-06-28T11:54:38.131Z,23.90
2023-06-28T11:55:41.766Z,24.00
2023-06-28T11:56:45.605Z,24.10
2023-06-28T11:57:47.950Z,24.30
2023-06-28T11:58:51.830Z,24.30
2023-06-28T11:59:56.683Z,24.50
2023-06-28T12:00:58.927Z,24.70
2023-06-28T12:02:04.902Z,24.90
2023-06-28T12:03:07.885Z,24.40
2023-06-28T12:04:13.605Z,24.40
2023-06-28T12:05:18.334Z,24.20
2023-06-28T12:06:21.860Z,24.90
2023-06-28T12:07:23.885Z,24.30
2023-06-28T12:08:28.431Z,24.40
2023-06-28T12:09:30.882Z,24.30
2023-06-28T12:10:35.550Z,24.20
2023-06-28T12:11:38.541Z,24.20
2023-06-28T12:12:42.543Z,24.20
2023-06-28T12:13:46.097Z,24.30
2023-06-28T12:14:50.358Z,24.30
2023-06-28T12:15:55.248Z,24.30
2023-06-28T12:16:58.713Z,24.20
2023-06-28T12:18:00.698Z,23.80
2023-06-28T12:19:03.940Z,23.60
2023-06-28T12:20:06.386Z,23.70
2023-06-28T12:21:22.693Z,23.40
2023-06-28T12:22:25.907Z,23.20
2023-06-28T12:23:29.204Z,23.30
2023-06-28T12:24:35.845Z,23.20
2023-06-28T12:25:42.635Z,23.50
2023-06-28T12:26:46.644Z,24.20
2023-06-28T12:28:00.493Z,24.80
2023-06-28T12:29:03.618Z,25.50
2023-06-28T12:30:10.438Z,25.70
2023-06-28T12:31:12.493Z,25.60
2023-06-28T12:32:19.349Z,25.50
2023-06-28T12:33:24.094Z,25.70
2023-06-28T12:34:27.648Z,25.70
2023-06-28T12:35:31.045Z,25.70
2023-06-28T12:36:33.951Z,25.50
2023-06-28T12:37:37.676Z,25.40
2023-06-28T12:38:44.809Z,25.60
2023-06-28T12:39:48.383Z,25.30
2023-06-28T12:40:51.594Z,25.10
2023-06-28T12:42:04.252Z,24.80
2023-06-28T12:43:10.833Z,24.70
2023-06-28T12:44:19.217Z,24.50
2023-06-28T12:45:23.366Z,24.60
2023-06-28T12:46:26.859Z,24.00
2023-06-28T12:47:30.985Z,24.00
2023-06-28T12:48:33.979Z,23.90
2023-06-28T12:49:39.944Z,24.30
2023-06-28T12:50:42.812Z,24.00
2023-06-28T12:51:44.756Z,23.80
2023-06-28T12:52:47.682Z,23.70
2023-06-28T12:53:53.440Z,23.50
2023-06-28T12:54:55.767Z,23.70
2023-06-28T12:55:58.680Z,23.50
2023-06-28T12:57:01.367Z,23.30
2023-06-28T12:58:04.566Z,23.50
2023-06-28T12:59:06.479Z,23.60
2023-06-28T13:00:10.189Z,23.70
2023-06-28T13:01:12.465Z,23.90
2023-06-28T13:02:15.926Z,24.10
2023-06-28T13:03:20.953Z,24.00
2023-06-28T13:04:27.962Z,23.90
2023-06-28T13:05:31.021Z,23.80
2023-06-28T13:06:33.125Z,23.90
2023-06-28T13:07:36.872Z,24.00
2023-06-28T13:08:38.896Z,24.20
2023-06-28T13:09:43.795Z,23.90
2023-06-28T13:10:46.868Z,23.80
2023-06-28T13:11:49.378Z,23.90
2023-06-28T13:12:52.441Z,24.50
2023-06-28T13:13:55.313Z,24.70
2023-06-28T13:14:58.401Z,24.90
2023-06-28T13:16:01.436Z,25.00
2023-06-28T13:17:04.752Z,24.90
2023-06-28T13:18:08.091Z,25.10
2023-06-28T13:19:10.263Z,25.30
2023-06-28T13:20:14.071Z,25.30
2023-06-28T13:21:16.870Z,25.60
2023-06-28T13:22:20.058Z,25.80
2023-06-28T13:23:23.006Z,26.00
2023-06-28T13:24:25.236Z,26.00
2023-06-28T13:25:29.759Z,26.30
2023-06-28T13:26:33.242Z,26.00
2023-06-28T13:27:35.171Z,26.00
2023-06-28T13:28:38.185Z,26.00
2023-06-28T13:29:40.112Z,26.20
2023-06-28T13:30:43.183Z,26.00
2023-06-28T13:31:46.895Z,25.80
2023-06-28T13:32:51.013Z,25.90
2023-06-28T13:33:54.013Z,25.80
2023-06-28T13:34:55.910Z,25.60
2023-06-28T13:35:58.778Z,25.10
2023-06-28T13:37:01.539Z,24.90
2023-06-28T13:38:04.499Z,24.70
2023-06-28T13:39:06.981Z,25.00
2023-06-28T13:40:13.146Z,24.90
2023-06-28T13:41:17.371Z,24.70